sensor_id;sensor_type;location;lat;lon;timestamp;P1;durP1;ratioP1;P2;durP2;ratioP2
7487;SDS011;3785;52.260;4.728;2023-05-27T00:00:12;3.70;;;1.25;;
7487;SDS011;3785;52.260;4.728;2023-05-27T00:03:33;7.88;;;1.55;;
7487;SDS011;3785;52.260;4.728;2023-05-27T00:06:53;6.10;;;1.30;;
7487;SDS011;3785;52.260;4.728;2023-05-27T00:10:14;2.83;;;1.23;;
7487;SDS011;3785;52.260;4.728;2023-05-27T00:13:35;5.38;;;1.50;;
7487;SDS011;3785;52.260;4.728;2023-05-27T00:16:55;5.85;;;1.60;;
7487;SDS011;3785;52.260;4.728;2023-05-27T00:20:16;4.63;;;1.40;;
7487;SDS011;3785;52.260;4.728;2023-05-27T00:23:36;2.83;;;1.10;;
7487;SDS011;3785;52.260;4.728;2023-05-27T00:26:57;5.25;;;1.40;;
7487;SDS011;3785;52.260;4.728;2023-05-27T00:30:17;6.80;;;1.80;;
7487;SDS011;3785;52.260;4.728;2023-05-27T00:33:38;4.90;;;1.40;;
7487;SDS011;3785;52.260;4.728;2023-05-27T00:36:59;4.18;;;1.20;;
7487;SDS011;3785;52.260;4.728;2023-05-27T00:40:21;6.15;;;1.45;;
7487;SDS011;3785;52.260;4.728;2023-05-27T00:43:43;4.55;;;1.38;;
7487;SDS011;3785;52.260;4.728;2023-05-27T00:47:03;5.93;;;1.40;;
7487;SDS011;3785;52.260;4.728;2023-05-27T00:50:24;5.10;;;1.40;;
7487;SDS011;3785;52.260;4.728;2023-05-27T00:53:46;5.28;;;1.35;;
7487;SDS011;3785;52.260;4.728;2023-05-27T00:57:07;2.88;;;1.10;;
7487;SDS011;3785;52.260;4.728;2023-05-27T01:00:27;5.80;;;1.25;;
7487;SDS011;3785;52.260;4.728;2023-05-27T01:03:48;5.47;;;1.55;;
7487;SDS011;3785;52.260;4.728;2023-05-27T01:10:54;2.90;;;1.40;;
7487;SDS011;3785;52.260;4.728;2023-05-27T01:14:15;6.15;;;1.88;;
7487;SDS011;3785;52.260;4.728;2023-05-27T01:17:36;4.40;;;1.50;;
7487;SDS011;3785;52.260;4.728;2023-05-27T01:21:02;5.38;;;1.40;;
7487;SDS011;3785;52.260;4.728;2023-05-27T01:24:30;7.40;;;2.60;;
7487;SDS011;3785;52.260;4.728;2023-05-27T01:27:51;3.05;;;1.48;;
7487;SDS011;3785;52.260;4.728;2023-05-27T01:31:18;5.05;;;1.40;;
7487;SDS011;3785;52.260;4.728;2023-05-27T01:34:57;4.32;;;1.05;;
7487;SDS011;3785;52.260;4.728;2023-05-27T01:38:28;4.80;;;1.58;;
7487;SDS011;3785;52.260;4.728;2023-05-27T01:41:50;4.28;;;1.60;;
7487;SDS011;3785;52.260;4.728;2023-05-27T01:45:12;2.50;;;1.20;;
7487;SDS011;3785;52.260;4.728;2023-05-27T01:48:33;3.50;;;1.10;;
7487;SDS011;3785;52.260;4.728;2023-05-27T01:51:53;6.55;;;1.42;;
7487;SDS011;3785;52.260;4.728;2023-05-27T01:55:14;3.38;;;1.23;;
7487;SDS011;3785;52.260;4.728;2023-05-27T01:58:35;6.32;;;1.30;;
7487;SDS011;3785;52.260;4.728;2023-05-27T02:01:55;5.03;;;1.60;;
7487;SDS011;3785;52.260;4.728;2023-05-27T02:05:16;4.82;;;1.52;;
7487;SDS011;3785;52.260;4.728;2023-05-27T02:08:37;6.10;;;1.40;;
7487;SDS011;3785;52.260;4.728;2023-05-27T02:11:57;3.90;;;1.42;;
7487;SDS011;3785;52.260;4.728;2023-05-27T02:15:18;3.67;;;1.27;;
7487;SDS011;3785;52.260;4.728;2023-05-27T02:18:38;5.68;;;1.25;;
7487;SDS011;3785;52.260;4.728;2023-05-27T02:22:00;3.33;;;1.15;;
7487;SDS011;3785;52.260;4.728;2023-05-27T02:25:21;5.75;;;1.80;;
7487;SDS011;3785;52.260;4.728;2023-05-27T02:28:41;4.40;;;1.17;;
7487;SDS011;3785;52.260;4.728;2023-05-27T02:32:02;2.75;;;1.40;;
7487;SDS011;3785;52.260;4.728;2023-05-27T02:35:23;6.07;;;1.23;;
7487;SDS011;3785;52.260;4.728;2023-05-27T02:38:43;6.35;;;1.38;;
7487;SDS011;3785;52.260;4.728;2023-05-27T02:42:04;3.00;;;1.42;;
7487;SDS011;3785;52.260;4.728;2023-05-27T02:45:26;5.60;;;1.50;;
7487;SDS011;3785;52.260;4.728;2023-05-27T02:48:47;4.70;;;1.25;;
7487;SDS011;3785;52.260;4.728;2023-05-27T02:52:07;3.75;;;1.55;;
7487;SDS011;3785;52.260;4.728;2023-05-27T02:55:28;2.80;;;1.20;;
7487;SDS011;3785;52.260;4.728;2023-05-27T02:58:48;5.60;;;1.17;;
7487;SDS011;3785;52.260;4.728;2023-05-27T03:02:09;2.65;;;1.10;;
7487;SDS011;3785;52.260;4.728;2023-05-27T03:05:30;4.55;;;1.55;;
7487;SDS011;3785;52.260;4.728;2023-05-27T03:08:50;5.25;;;1.95;;
7487;SDS011;3785;52.260;4.728;2023-05-27T03:12:11;5.15;;;1.50;;
7487;SDS011;3785;52.260;4.728;2023-05-27T03:15:31;5.47;;;1.58;;
7487;SDS011;3785;52.260;4.728;2023-05-27T03:18:52;3.78;;;1.42;;
7487;SDS011;3785;52.260;4.728;2023-05-27T03:22:12;3.35;;;1.45;;
7487;SDS011;3785;52.260;4.728;2023-05-27T03:25:33;5.93;;;1.75;;
7487;SDS011;3785;52.260;4.728;2023-05-27T03:28:54;2.42;;;1.30;;
7487;SDS011;3785;52.260;4.728;2023-05-27T03:32:14;3.28;;;1.30;;
7487;SDS011;3785;52.260;4.728;2023-05-27T03:35:35;4.50;;;2.25;;
7487;SDS011;3785;52.260;4.728;2023-05-27T03:38:56;5.45;;;1.50;;
7487;SDS011;3785;52.260;4.728;2023-05-27T03:42:18;5.35;;;1.80;;
7487;SDS011;3785;52.260;4.728;2023-05-27T03:45:38;4.70;;;1.92;;
7487;SDS011;3785;52.260;4.728;2023-05-27T03:48:59;6.65;;;1.83;;
7487;SDS011;3785;52.260;4.728;2023-05-27T03:52:20;5.07;;;1.70;;
7487;SDS011;3785;52.260;4.728;2023-05-27T03:55:40;5.00;;;1.75;;
7487;SDS011;3785;52.260;4.728;2023-05-27T03:59:01;4.15;;;1.75;;
7487;SDS011;3785;52.260;4.728;2023-05-27T04:02:21;8.00;;;1.70;;
7487;SDS011;3785;52.260;4.728;2023-05-27T04:05:42;4.63;;;1.50;;
7487;SDS011;3785;52.260;4.728;2023-05-27T04:09:03;6.13;;;1.55;;
7487;SDS011;3785;52.260;4.728;2023-05-27T04:12:23;4.45;;;1.73;;
7487;SDS011;3785;52.260;4.728;2023-05-27T04:15:44;5.03;;;1.67;;
7487;SDS011;3785;52.260;4.728;2023-05-27T04:19:04;5.82;;;1.45;;
7487;SDS011;3785;52.260;4.728;2023-05-27T04:22:25;3.67;;;1.45;;
7487;SDS011;3785;52.260;4.728;2023-05-27T04:25:45;6.32;;;1.95;;
7487;SDS011;3785;52.260;4.728;2023-05-27T04:29:08;2.67;;;1.27;;
7487;SDS011;3785;52.260;4.728;2023-05-27T04:32:31;6.72;;;1.70;;
7487;SDS011;3785;52.260;4.728;2023-05-27T04:35:59;4.72;;;1.50;;
7487;SDS011;3785;52.260;4.728;2023-05-27T04:39:19;2.83;;;1.55;;
7487;SDS011;3785;52.260;4.728;2023-05-27T04:42:40;5.18;;;1.60;;
7487;SDS011;3785;52.260;4.728;2023-05-27T04:46:03;3.58;;;1.17;;
7487;SDS011;3785;52.260;4.728;2023-05-27T04:49:24;4.65;;;1.33;;
7487;SDS011;3785;52.260;4.728;2023-05-27T04:52:44;5.68;;;1.70;;
7487;SDS011;3785;52.260;4.728;2023-05-27T04:56:05;4.40;;;1.40;;
7487;SDS011;3785;52.260;4.728;2023-05-27T04:59:28;8.13;;;1.63;;
7487;SDS011;3785;52.260;4.728;2023-05-27T05:03:27;4.28;;;1.52;;
7487;SDS011;3785;52.260;4.728;2023-05-27T05:06:57;7.82;;;1.90;;
7487;SDS011;3785;52.260;4.728;2023-05-27T05:10:17;7.72;;;1.90;;
7487;SDS011;3785;52.260;4.728;2023-05-27T05:13:38;6.38;;;2.03;;
7487;SDS011;3785;52.260;4.728;2023-05-27T05:16:58;4.13;;;1.23;;
7487;SDS011;3785;52.260;4.728;2023-05-27T05:20:19;6.22;;;1.83;;
7487;SDS011;3785;52.260;4.728;2023-05-27T05:23:39;6.93;;;1.70;;
7487;SDS011;3785;52.260;4.728;2023-05-27T05:27:01;5.10;;;1.58;;
7487;SDS011;3785;52.260;4.728;2023-05-27T05:30:22;4.72;;;1.55;;
7487;SDS011;3785;52.260;4.728;2023-05-27T05:33:42;4.20;;;1.58;;
7487;SDS011;3785;52.260;4.728;2023-05-27T05:37:03;6.18;;;1.73;;
7487;SDS011;3785;52.260;4.728;2023-05-27T05:40:24;5.22;;;1.35;;
7487;SDS011;3785;52.260;4.728;2023-05-27T05:43:45;7.47;;;1.63;;
7487;SDS011;3785;52.260;4.728;2023-05-27T05:47:05;3.95;;;1.63;;
7487;SDS011;3785;52.260;4.728;2023-05-27T05:50:26;5.78;;;1.85;;
7487;SDS011;3785;52.260;4.728;2023-05-27T05:53:46;6.10;;;1.80;;
7487;SDS011;3785;52.260;4.728;2023-05-27T05:57:07;6.75;;;1.73;;
7487;SDS011;3785;52.260;4.728;2023-05-27T06:00:28;8.68;;;2.08;;
7487;SDS011;3785;52.260;4.728;2023-05-27T06:03:49;6.88;;;2.00;;
7487;SDS011;3785;52.260;4.728;2023-05-27T06:07:09;5.63;;;1.83;;
7487;SDS011;3785;52.260;4.728;2023-05-27T06:10:30;6.53;;;1.83;;
7487;SDS011;3785;52.260;4.728;2023-05-27T06:13:50;4.78;;;2.08;;
7487;SDS011;3785;52.260;4.728;2023-05-27T06:17:11;4.53;;;1.77;;
7487;SDS011;3785;52.260;4.728;2023-05-27T06:20:31;8.23;;;1.83;;
7487;SDS011;3785;52.260;4.728;2023-05-27T06:23:52;4.18;;;1.60;;
7487;SDS011;3785;52.260;4.728;2023-05-27T06:27:12;3.65;;;1.42;;
7487;SDS011;3785;52.260;4.728;2023-05-27T06:30:33;5.45;;;1.60;;
7487;SDS011;3785;52.260;4.728;2023-05-27T06:33:53;6.88;;;1.90;;
7487;SDS011;3785;52.260;4.728;2023-05-27T06:37:14;6.45;;;1.92;;
7487;SDS011;3785;52.260;4.728;2023-05-27T06:40:35;5.75;;;1.67;;
7487;SDS011;3785;52.260;4.728;2023-05-27T06:43:55;4.93;;;1.60;;
7487;SDS011;3785;52.260;4.728;2023-05-27T06:47:16;6.28;;;1.95;;
7487;SDS011;3785;52.260;4.728;2023-05-27T06:50:37;6.97;;;2.20;;
7487;SDS011;3785;52.260;4.728;2023-05-27T06:53:57;7.57;;;2.17;;
7487;SDS011;3785;52.260;4.728;2023-05-27T06:57:18;6.72;;;2.28;;
7487;SDS011;3785;52.260;4.728;2023-05-27T07:00:38;4.18;;;1.98;;
7487;SDS011;3785;52.260;4.728;2023-05-27T07:03:59;7.88;;;2.00;;
7487;SDS011;3785;52.260;4.728;2023-05-27T07:07:19;6.00;;;1.98;;
7487;SDS011;3785;52.260;4.728;2023-05-27T07:10:40;8.95;;;2.60;;
7487;SDS011;3785;52.260;4.728;2023-05-27T07:14:01;3.70;;;1.80;;
7487;SDS011;3785;52.260;4.728;2023-05-27T07:17:21;5.25;;;2.08;;
7487;SDS011;3785;52.260;4.728;2023-05-27T07:20:42;6.65;;;1.95;;
7487;SDS011;3785;52.260;4.728;2023-05-27T07:24:03;4.00;;;1.83;;
7487;SDS011;3785;52.260;4.728;2023-05-27T07:27:23;8.45;;;2.30;;
7487;SDS011;3785;52.260;4.728;2023-05-27T07:30:44;5.72;;;2.05;;
7487;SDS011;3785;52.260;4.728;2023-05-27T07:34:04;5.43;;;2.10;;
7487;SDS011;3785;52.260;4.728;2023-05-27T07:37:26;8.18;;;2.58;;
7487;SDS011;3785;52.260;4.728;2023-05-27T07:40:48;4.88;;;2.28;;
7487;SDS011;3785;52.260;4.728;2023-05-27T07:44:09;4.85;;;1.92;;
7487;SDS011;3785;52.260;4.728;2023-05-27T07:47:30;7.32;;;1.95;;
7487;SDS011;3785;52.260;4.728;2023-05-27T07:50:50;6.47;;;2.33;;
7487;SDS011;3785;52.260;4.728;2023-05-27T07:54:11;4.88;;;2.30;;
7487;SDS011;3785;52.260;4.728;2023-05-27T07:57:31;8.55;;;2.17;;
7487;SDS011;3785;52.260;4.728;2023-05-27T08:00:52;6.85;;;2.20;;
7487;SDS011;3785;52.260;4.728;2023-05-27T08:04:12;6.38;;;2.15;;
7487;SDS011;3785;52.260;4.728;2023-05-27T08:07:33;6.95;;;2.38;;
7487;SDS011;3785;52.260;4.728;2023-05-27T08:10:53;7.15;;;2.45;;
7487;SDS011;3785;52.260;4.728;2023-05-27T08:14:14;7.63;;;2.38;;
7487;SDS011;3785;52.260;4.728;2023-05-27T08:17:35;5.32;;;1.77;;
7487;SDS011;3785;52.260;4.728;2023-05-27T08:20:56;7.13;;;2.10;;
7487;SDS011;3785;52.260;4.728;2023-05-27T08:24:17;5.28;;;2.08;;
7487;SDS011;3785;52.260;4.728;2023-05-27T08:28:11;8.10;;;2.10;;
7487;SDS011;3785;52.260;4.728;2023-05-27T08:31:25;3.67;;;2.05;;
7487;SDS011;3785;52.260;4.728;2023-05-27T08:34:45;8.20;;;2.10;;
7487;SDS011;3785;52.260;4.728;2023-05-27T08:38:06;7.35;;;2.33;;
7487;SDS011;3785;52.260;4.728;2023-05-27T08:41:27;5.65;;;1.92;;
7487;SDS011;3785;52.260;4.728;2023-05-27T08:44:47;6.45;;;2.17;;
7487;SDS011;3785;52.260;4.728;2023-05-27T08:48:08;7.78;;;2.17;;
7487;SDS011;3785;52.260;4.728;2023-05-27T08:51:30;7.03;;;2.28;;
7487;SDS011;3785;52.260;4.728;2023-05-27T08:54:50;6.82;;;1.88;;
7487;SDS011;3785;52.260;4.728;2023-05-27T08:58:12;5.45;;;2.00;;
7487;SDS011;3785;52.260;4.728;2023-05-27T09:01:32;6.70;;;2.40;;
7487;SDS011;3785;52.260;4.728;2023-05-27T09:04:53;9.80;;;3.00;;
7487;SDS011;3785;52.260;4.728;2023-05-27T09:08:13;9.45;;;2.53;;
7487;SDS011;3785;52.260;4.728;2023-05-27T09:11:37;6.18;;;2.03;;
7487;SDS011;3785;52.260;4.728;2023-05-27T09:14:59;5.85;;;2.05;;
7487;SDS011;3785;52.260;4.728;2023-05-27T09:18:25;4.68;;;2.17;;
7487;SDS011;3785;52.260;4.728;2023-05-27T09:21:46;7.80;;;2.50;;
7487;SDS011;3785;52.260;4.728;2023-05-27T09:25:13;4.82;;;1.85;;
7487;SDS011;3785;52.260;4.728;2023-05-27T09:28:35;5.40;;;2.53;;
7487;SDS011;3785;52.260;4.728;2023-05-27T09:31:56;6.70;;;2.20;;
7487;SDS011;3785;52.260;4.728;2023-05-27T09:35:17;7.13;;;2.20;;
7487;SDS011;3785;52.260;4.728;2023-05-27T09:38:37;6.65;;;2.10;;
7487;SDS011;3785;52.260;4.728;2023-05-27T09:41:58;5.38;;;2.00;;
7487;SDS011;3785;52.260;4.728;2023-05-27T09:45:20;6.40;;;2.15;;
7487;SDS011;3785;52.260;4.728;2023-05-27T09:48:41;6.28;;;2.20;;
7487;SDS011;3785;52.260;4.728;2023-05-27T09:52:03;6.65;;;2.33;;
7487;SDS011;3785;52.260;4.728;2023-05-27T09:55:28;5.15;;;2.15;;
7487;SDS011;3785;52.260;4.728;2023-05-27T09:58:49;8.02;;;2.65;;
7487;SDS011;3785;52.260;4.728;2023-05-27T10:02:10;7.43;;;2.25;;
7487;SDS011;3785;52.260;4.728;2023-05-27T10:05:32;9.05;;;2.47;;
7487;SDS011;3785;52.260;4.728;2023-05-27T10:08:53;7.60;;;1.95;;
7487;SDS011;3785;52.260;4.728;2023-05-27T10:12:15;6.75;;;2.35;;
7487;SDS011;3785;52.260;4.728;2023-05-27T10:15:36;9.90;;;2.60;;
7487;SDS011;3785;52.260;4.728;2023-05-27T10:18:57;6.43;;;2.17;;
7487;SDS011;3785;52.260;4.728;2023-05-27T10:22:18;8.30;;;2.88;;
7487;SDS011;3785;52.260;4.728;2023-05-27T10:25:45;6.30;;;2.28;;
7487;SDS011;3785;52.260;4.728;2023-05-27T10:29:14;7.38;;;2.50;;
7487;SDS011;3785;52.260;4.728;2023-05-27T10:32:44;5.68;;;2.28;;
7487;SDS011;3785;52.260;4.728;2023-05-27T10:36:09;6.60;;;2.60;;
7487;SDS011;3785;52.260;4.728;2023-05-27T10:39:31;4.68;;;2.20;;
7487;SDS011;3785;52.260;4.728;2023-05-27T10:42:58;7.90;;;2.53;;
7487;SDS011;3785;52.260;4.728;2023-05-27T10:46:20;7.75;;;2.58;;
7487;SDS011;3785;52.260;4.728;2023-05-27T10:49:44;4.45;;;2.25;;
7487;SDS011;3785;52.260;4.728;2023-05-27T10:53:07;5.90;;;2.30;;
7487;SDS011;3785;52.260;4.728;2023-05-27T10:56:27;9.05;;;2.67;;
7487;SDS011;3785;52.260;4.728;2023-05-27T10:59:51;5.45;;;2.17;;
7487;SDS011;3785;52.260;4.728;2023-05-27T11:03:17;6.53;;;2.40;;
7487;SDS011;3785;52.260;4.728;2023-05-27T11:06:42;5.43;;;2.40;;
7487;SDS011;3785;52.260;4.728;2023-05-27T11:10:02;9.65;;;2.40;;
7487;SDS011;3785;52.260;4.728;2023-05-27T11:13:38;8.15;;;2.53;;
7487;SDS011;3785;52.260;4.728;2023-05-27T11:17:00;5.55;;;2.17;;
7487;SDS011;3785;52.260;4.728;2023-05-27T11:20:20;6.45;;;2.38;;
7487;SDS011;3785;52.260;4.728;2023-05-27T11:23:45;6.90;;;1.80;;
7487;SDS011;3785;52.260;4.728;2023-05-27T11:27:13;6.13;;;2.50;;
7487;SDS011;3785;52.260;4.728;2023-05-27T11:30:34;7.93;;;2.70;;
7487;SDS011;3785;52.260;4.728;2023-05-27T11:33:55;7.10;;;2.13;;
7487;SDS011;3785;52.260;4.728;2023-05-27T11:37:15;8.85;;;2.33;;
7487;SDS011;3785;52.260;4.728;2023-05-27T11:40:37;7.00;;;2.50;;
7487;SDS011;3785;52.260;4.728;2023-05-27T11:44:05;3.60;;;2.15;;
7487;SDS011;3785;52.260;4.728;2023-05-27T11:47:26;6.07;;;2.70;;
7487;SDS011;3785;52.260;4.728;2023-05-27T11:50:47;7.88;;;3.10;;
7487;SDS011;3785;52.260;4.728;2023-05-27T11:54:16;5.82;;;2.20;;
7487;SDS011;3785;52.260;4.728;2023-05-27T11:57:37;6.03;;;2.80;;
7487;SDS011;3785;52.260;4.728;2023-05-27T12:00:57;7.07;;;2.45;;
7487;SDS011;3785;52.260;4.728;2023-05-27T12:04:18;4.63;;;2.15;;
7487;SDS011;3785;52.260;4.728;2023-05-27T12:07:39;5.00;;;2.25;;
7487;SDS011;3785;52.260;4.728;2023-05-27T12:11:00;10.50;;;3.28;;
7487;SDS011;3785;52.260;4.728;2023-05-27T12:14:21;6.72;;;2.50;;
7487;SDS011;3785;52.260;4.728;2023-05-27T12:17:42;8.07;;;2.30;;
7487;SDS011;3785;52.260;4.728;2023-05-27T12:21:02;7.60;;;2.72;;
7487;SDS011;3785;52.260;4.728;2023-05-27T12:24:23;7.63;;;2.67;;
7487;SDS011;3785;52.260;4.728;2023-05-27T12:27:44;4.85;;;2.30;;
7487;SDS011;3785;52.260;4.728;2023-05-27T12:31:04;6.90;;;2.58;;
7487;SDS011;3785;52.260;4.728;2023-05-27T12:34:25;5.65;;;2.00;;
7487;SDS011;3785;52.260;4.728;2023-05-27T12:37:46;10.85;;;2.97;;
7487;SDS011;3785;52.260;4.728;2023-05-27T12:41:06;8.48;;;2.42;;
7487;SDS011;3785;52.260;4.728;2023-05-27T12:44:27;6.10;;;2.30;;
7487;SDS011;3785;52.260;4.728;2023-05-27T12:47:48;7.05;;;2.72;;
7487;SDS011;3785;52.260;4.728;2023-05-27T12:51:09;6.30;;;2.83;;
7487;SDS011;3785;52.260;4.728;2023-05-27T12:54:31;5.88;;;2.45;;
7487;SDS011;3785;52.260;4.728;2023-05-27T12:57:52;7.88;;;2.92;;
7487;SDS011;3785;52.260;4.728;2023-05-27T13:01:13;4.10;;;2.15;;
7487;SDS011;3785;52.260;4.728;2023-05-27T13:04:33;7.05;;;2.58;;
7487;SDS011;3785;52.260;4.728;2023-05-27T13:07:55;9.98;;;2.85;;
7487;SDS011;3785;52.260;4.728;2023-05-27T13:11:17;9.00;;;2.60;;
7487;SDS011;3785;52.260;4.728;2023-05-27T13:14:38;5.45;;;2.17;;
7487;SDS011;3785;52.260;4.728;2023-05-27T13:17:59;6.55;;;2.45;;
7487;SDS011;3785;52.260;4.728;2023-05-27T13:21:19;5.80;;;2.10;;
7487;SDS011;3785;52.260;4.728;2023-05-27T13:24:40;6.70;;;2.45;;
7487;SDS011;3785;52.260;4.728;2023-05-27T13:28:01;5.18;;;2.38;;
7487;SDS011;3785;52.260;4.728;2023-05-27T13:31:22;6.65;;;2.75;;
7487;SDS011;3785;52.260;4.728;2023-05-27T13:34:43;7.05;;;2.80;;
7487;SDS011;3785;52.260;4.728;2023-05-27T13:38:03;7.30;;;2.92;;
7487;SDS011;3785;52.260;4.728;2023-05-27T13:41:26;7.38;;;2.42;;
7487;SDS011;3785;52.260;4.728;2023-05-27T13:44:47;6.32;;;1.95;;
7487;SDS011;3785;52.260;4.728;2023-05-27T13:48:07;6.00;;;2.40;;
7487;SDS011;3785;52.260;4.728;2023-05-27T13:51:29;5.95;;;2.35;;
7487;SDS011;3785;52.260;4.728;2023-05-27T13:54:50;5.72;;;2.47;;
7487;SDS011;3785;52.260;4.728;2023-05-27T13:58:14;5.75;;;2.30;;
7487;SDS011;3785;52.260;4.728;2023-05-27T14:01:35;7.28;;;2.63;;
7487;SDS011;3785;52.260;4.728;2023-05-27T14:04:57;6.97;;;2.67;;
7487;SDS011;3785;52.260;4.728;2023-05-27T14:08:20;10.25;;;2.63;;
7487;SDS011;3785;52.260;4.728;2023-05-27T14:11:43;6.60;;;2.20;;
7487;SDS011;3785;52.260;4.728;2023-05-27T14:15:04;10.68;;;2.60;;
7487;SDS011;3785;52.260;4.728;2023-05-27T14:18:25;5.15;;;2.30;;
7487;SDS011;3785;52.260;4.728;2023-05-27T14:21:46;7.45;;;2.50;;
7487;SDS011;3785;52.260;4.728;2023-05-27T14:25:10;6.82;;;2.40;;
7487;SDS011;3785;52.260;4.728;2023-05-27T14:28:30;6.65;;;3.03;;
7487;SDS011;3785;52.260;4.728;2023-05-27T14:31:52;6.70;;;2.10;;
7487;SDS011;3785;52.260;4.728;2023-05-27T14:35:16;7.10;;;2.70;;
7487;SDS011;3785;52.260;4.728;2023-05-27T14:38:37;6.75;;;2.80;;
7487;SDS011;3785;52.260;4.728;2023-05-27T14:41:59;7.82;;;2.47;;
7487;SDS011;3785;52.260;4.728;2023-05-27T14:45:22;7.57;;;2.65;;
7487;SDS011;3785;52.260;4.728;2023-05-27T14:48:43;7.13;;;2.85;;
7487;SDS011;3785;52.260;4.728;2023-05-27T14:52:05;7.53;;;2.67;;
7487;SDS011;3785;52.260;4.728;2023-05-27T14:55:26;8.18;;;2.42;;
7487;SDS011;3785;52.260;4.728;2023-05-27T14:58:47;6.13;;;2.13;;
7487;SDS011;3785;52.260;4.728;2023-05-27T15:02:08;6.53;;;2.33;;
7487;SDS011;3785;52.260;4.728;2023-05-27T15:05:28;5.32;;;2.13;;
7487;SDS011;3785;52.260;4.728;2023-05-27T15:08:52;7.15;;;2.80;;
7487;SDS011;3785;52.260;4.728;2023-05-27T15:12:13;6.07;;;2.40;;
7487;SDS011;3785;52.260;4.728;2023-05-27T15:15:34;6.28;;;2.55;;
7487;SDS011;3785;52.260;4.728;2023-05-27T15:18:55;7.35;;;2.28;;
7487;SDS011;3785;52.260;4.728;2023-05-27T15:22:18;7.60;;;2.42;;
7487;SDS011;3785;52.260;4.728;2023-05-27T15:25:41;5.00;;;1.92;;
7487;SDS011;3785;52.260;4.728;2023-05-27T15:29:02;5.85;;;2.30;;
7487;SDS011;3785;52.260;4.728;2023-05-27T15:32:22;6.28;;;2.10;;
7487;SDS011;3785;52.260;4.728;2023-05-27T15:35:43;5.45;;;2.35;;
7487;SDS011;3785;52.260;4.728;2023-05-27T15:39:04;5.35;;;2.50;;
7487;SDS011;3785;52.260;4.728;2023-05-27T15:42:26;5.43;;;2.40;;
7487;SDS011;3785;52.260;4.728;2023-05-27T15:45:47;5.10;;;2.03;;
7487;SDS011;3785;52.260;4.728;2023-05-27T15:49:07;6.22;;;2.20;;
7487;SDS011;3785;52.260;4.728;2023-05-27T15:52:28;5.22;;;2.20;;
7487;SDS011;3785;52.260;4.728;2023-05-27T15:55:49;6.80;;;2.60;;
7487;SDS011;3785;52.260;4.728;2023-05-27T15:59:10;4.47;;;2.10;;
7487;SDS011;3785;52.260;4.728;2023-05-27T16:02:31;4.57;;;2.33;;
7487;SDS011;3785;52.260;4.728;2023-05-27T16:05:51;6.15;;;2.35;;
7487;SDS011;3785;52.260;4.728;2023-05-27T16:09:12;7.18;;;2.90;;
7487;SDS011;3785;52.260;4.728;2023-05-27T16:12:32;8.10;;;2.95;;
7487;SDS011;3785;52.260;4.728;2023-05-27T16:15:53;4.93;;;2.30;;
7487;SDS011;3785;52.260;4.728;2023-05-27T16:19:15;7.90;;;2.70;;
7487;SDS011;3785;52.260;4.728;2023-05-27T16:22:36;9.02;;;3.03;;
7487;SDS011;3785;52.260;4.728;2023-05-27T16:25:56;5.68;;;2.55;;
7487;SDS011;3785;52.260;4.728;2023-05-27T16:29:17;8.48;;;2.83;;
7487;SDS011;3785;52.260;4.728;2023-05-27T16:32:37;8.25;;;2.97;;
7487;SDS011;3785;52.260;4.728;2023-05-27T16:35:58;5.93;;;2.70;;
7487;SDS011;3785;52.260;4.728;2023-05-27T16:39:18;5.40;;;2.78;;
7487;SDS011;3785;52.260;4.728;2023-05-27T16:42:39;5.43;;;2.42;;
7487;SDS011;3785;52.260;4.728;2023-05-27T16:46:00;5.05;;;2.47;;
7487;SDS011;3785;52.260;4.728;2023-05-27T16:49:20;5.80;;;2.50;;
7487;SDS011;3785;52.260;4.728;2023-05-27T16:52:41;6.80;;;2.50;;
7487;SDS011;3785;52.260;4.728;2023-05-27T16:56:02;8.25;;;2.53;;
7487;SDS011;3785;52.260;4.728;2023-05-27T16:59:22;6.35;;;2.42;;
7487;SDS011;3785;52.260;4.728;2023-05-27T17:02:43;6.78;;;2.58;;
7487;SDS011;3785;52.260;4.728;2023-05-27T17:06:04;7.07;;;2.60;;
7487;SDS011;3785;52.260;4.728;2023-05-27T17:09:25;5.97;;;2.22;;
7487;SDS011;3785;52.260;4.728;2023-05-27T17:12:45;7.22;;;2.30;;
7487;SDS011;3785;52.260;4.728;2023-05-27T17:16:06;7.45;;;2.67;;
7487;SDS011;3785;52.260;4.728;2023-05-27T17:19:26;5.93;;;2.70;;
7487;SDS011;3785;52.260;4.728;2023-05-27T17:22:47;5.45;;;2.50;;
7487;SDS011;3785;52.260;4.728;2023-05-27T17:26:08;8.52;;;2.83;;
7487;SDS011;3785;52.260;4.728;2023-05-27T17:29:29;8.32;;;2.80;;
7487;SDS011;3785;52.260;4.728;2023-05-27T17:32:49;8.50;;;2.95;;
7487;SDS011;3785;52.260;4.728;2023-05-27T17:36:10;9.30;;;3.67;;
7487;SDS011;3785;52.260;4.728;2023-05-27T17:39:30;9.23;;;2.97;;
7487;SDS011;3785;52.260;4.728;2023-05-27T17:42:51;6.80;;;2.42;;
7487;SDS011;3785;52.260;4.728;2023-05-27T17:46:12;6.30;;;2.40;;
7487;SDS011;3785;52.260;4.728;2023-05-27T17:49:32;5.63;;;2.28;;
7487;SDS011;3785;52.260;4.728;2023-05-27T17:52:53;5.80;;;2.25;;
7487;SDS011;3785;52.260;4.728;2023-05-27T17:56:13;6.18;;;2.42;;
7487;SDS011;3785;52.260;4.728;2023-05-27T17:59:34;8.23;;;2.30;;
7487;SDS011;3785;52.260;4.728;2023-05-27T18:02:55;8.52;;;2.78;;
7487;SDS011;3785;52.260;4.728;2023-05-27T18:06:15;7.55;;;2.53;;
7487;SDS011;3785;52.260;4.728;2023-05-27T18:09:36;6.93;;;2.42;;
7487;SDS011;3785;52.260;4.728;2023-05-27T18:12:57;7.97;;;2.70;;
7487;SDS011;3785;52.260;4.728;2023-05-27T18:16:18;6.72;;;2.60;;
7487;SDS011;3785;52.260;4.728;2023-05-27T18:19:39;6.93;;;2.17;;
7487;SDS011;3785;52.260;4.728;2023-05-27T18:22:59;6.50;;;2.53;;
7487;SDS011;3785;52.260;4.728;2023-05-27T18:26:20;7.72;;;2.42;;
7487;SDS011;3785;52.260;4.728;2023-05-27T18:29:41;5.95;;;1.80;;
7487;SDS011;3785;52.260;4.728;2023-05-27T18:33:03;7.32;;;2.53;;
7487;SDS011;3785;52.260;4.728;2023-05-27T18:36:25;7.22;;;2.47;;
7487;SDS011;3785;52.260;4.728;2023-05-27T18:39:45;6.15;;;2.47;;
7487;SDS011;3785;52.260;4.728;2023-05-27T18:43:06;5.78;;;2.40;;
7487;SDS011;3785;52.260;4.728;2023-05-27T18:46:27;6.10;;;2.55;;
7487;SDS011;3785;52.260;4.728;2023-05-27T18:49:48;7.78;;;2.35;;
7487;SDS011;3785;52.260;4.728;2023-05-27T18:53:09;7.82;;;2.65;;
7487;SDS011;3785;52.260;4.728;2023-05-27T18:56:29;8.90;;;2.50;;
7487;SDS011;3785;52.260;4.728;2023-05-27T18:59:50;7.55;;;3.17;;
7487;SDS011;3785;52.260;4.728;2023-05-27T19:03:11;9.20;;;3.67;;
7487;SDS011;3785;52.260;4.728;2023-05-27T19:06:34;9.85;;;2.92;;
7487;SDS011;3785;52.260;4.728;2023-05-27T19:09:55;11.98;;;4.22;;
7487;SDS011;3785;52.260;4.728;2023-05-27T19:13:16;6.70;;;3.03;;
7487;SDS011;3785;52.260;4.728;2023-05-27T19:16:36;6.50;;;2.80;;
7487;SDS011;3785;52.260;4.728;2023-05-27T19:19:57;6.68;;;3.13;;
7487;SDS011;3785;52.260;4.728;2023-05-27T19:23:17;6.80;;;3.30;;
7487;SDS011;3785;52.260;4.728;2023-05-27T19:26:38;8.70;;;3.58;;
7487;SDS011;3785;52.260;4.728;2023-05-27T19:30:00;12.65;;;3.38;;
7487;SDS011;3785;52.260;4.728;2023-05-27T19:33:21;7.28;;;3.20;;
7487;SDS011;3785;52.260;4.728;2023-05-27T19:36:42;9.23;;;3.40;;
7487;SDS011;3785;52.260;4.728;2023-05-27T19:40:03;7.45;;;3.17;;
7487;SDS011;3785;52.260;4.728;2023-05-27T19:43:24;11.45;;;3.75;;
7487;SDS011;3785;52.260;4.728;2023-05-27T19:46:44;8.98;;;3.42;;
7487;SDS011;3785;52.260;4.728;2023-05-27T19:50:05;11.13;;;3.53;;
7487;SDS011;3785;52.260;4.728;2023-05-27T19:53:30;7.45;;;3.40;;
7487;SDS011;3785;52.260;4.728;2023-05-27T19:56:51;8.77;;;3.70;;
7487;SDS011;3785;52.260;4.728;2023-05-27T20:00:11;9.57;;;3.75;;
7487;SDS011;3785;52.260;4.728;2023-05-27T20:03:32;8.55;;;3.78;;
7487;SDS011;3785;52.260;4.728;2023-05-27T20:06:53;9.13;;;3.53;;
7487;SDS011;3785;52.260;4.728;2023-05-27T20:10:13;5.82;;;3.40;;
7487;SDS011;3785;52.260;4.728;2023-05-27T20:13:34;12.23;;;3.63;;
7487;SDS011;3785;52.260;4.728;2023-05-27T20:16:55;6.90;;;3.22;;
7487;SDS011;3785;52.260;4.728;2023-05-27T20:20:16;12.07;;;4.68;;
7487;SDS011;3785;52.260;4.728;2023-05-27T20:23:40;9.77;;;4.00;;
7487;SDS011;3785;52.260;4.728;2023-05-27T20:27:01;6.55;;;3.50;;
7487;SDS011;3785;52.260;4.728;2023-05-27T20:30:21;11.75;;;3.70;;
7487;SDS011;3785;52.260;4.728;2023-05-27T20:33:42;8.23;;;3.78;;
7487;SDS011;3785;52.260;4.728;2023-05-27T20:37:03;12.05;;;4.22;;
7487;SDS011;3785;52.260;4.728;2023-05-27T20:40:24;9.77;;;4.10;;
7487;SDS011;3785;52.260;4.728;2023-05-27T20:43:45;8.30;;;4.00;;
7487;SDS011;3785;52.260;4.728;2023-05-27T20:47:05;11.38;;;4.22;;
7487;SDS011;3785;52.260;4.728;2023-05-27T20:50:26;9.65;;;3.80;;
7487;SDS011;3785;52.260;4.728;2023-05-27T20:53:47;10.45;;;4.55;;